Main page
METAR-TAF:

METAR-TAF

Airports :

Farnborough Airport

Farnborough, England

latitude: 51-17N, longitude: 000-46W, elevation: 65 m

Current weather observation

The report was made 19 minutes ago, at 02:20 UTC
Wind 10 kt from the South/Southwest
Temperature 10°C
Humidity 82%
Pressure 1018 hPa
Visibility 10 km or more

METAR: EGLF 210220Z AUTO 20010KT 9999 BKN015/// 10/07 Q1018

Time: 02:39 (02:39 UTC)

Forecast

The report was made 9 hours and 37 minutes ago, at 17:02 UTC
Forecast valid from 20 at 18 UTC to 20 at 22 UTC
Wind 10 kt from the South/Southwest
Visibility 10 km or more
Few clouds at a height of 1000 ft
Probability 30% :
Temporary
from 20 at 18 UTC to 20 at 22 UTC
Broken clouds at a height of 1000 ft

TAF: EGLF 201702Z 2018/2022 20010KT 9999 FEW010 PROB30 TEMPO 2018/2022 BKN010

Weather observations and forecasts of more than 4000 airports (METAR and TAF reports).

The available stations are represented by yellow and red dots on the map.

Hover mouse over dot to see the name of the station.

Then click to see weather observations and forecasts.

To change the map : click on the green buttons with a black cross to zoom in, on the green button with a dash to zoom out, or on the green arrows for adjacent maps.


METAR-TAF: